sensor_id;sensor_type;location;lat;lon;timestamp;pressure;altitude;pressure_sealevel;temperature;humidity
73952;BME280;62304;47.662;18.324;2023-04-24T00:01:33;99428.25;;;15.77;47.26
73952;BME280;62304;47.662;18.324;2023-04-24T00:04:37;99432.97;;;15.80;47.21
73952;BME280;62304;47.662;18.324;2023-04-24T00:07:45;99428.13;;;15.84;47.23
73952;BME280;62304;47.662;18.324;2023-04-24T00:10:48;99422.53;;;15.84;47.98
73952;BME280;62304;47.662;18.324;2023-04-24T00:13:51;99419.66;;;15.88;47.95
73952;BME280;62304;47.662;18.324;2023-04-24T00:16:54;99425.53;;;15.93;47.66
73952;BME280;62304;47.662;18.324;2023-04-24T00:19:56;99409.97;;;15.92;47.81
73952;BME280;62304;47.662;18.324;2023-04-24T00:23:03;99411.28;;;15.88;47.56
73952;BME280;62304;47.662;18.324;2023-04-24T00:26:06;99404.69;;;15.98;47.34
73952;BME280;62304;47.662;18.324;2023-04-24T00:29:09;99399.19;;;15.94;47.49
73952;BME280;62304;47.662;18.324;2023-04-24T00:32:12;99398.37;;;15.94;47.20
73952;BME280;62304;47.662;18.324;2023-04-24T00:35:14;99395.09;;;15.99;47.08
73952;BME280;62304;47.662;18.324;2023-04-24T00:38:18;99395.88;;;15.99;47.25
73952;BME280;62304;47.662;18.324;2023-04-24T00:41:22;99391.47;;;15.98;47.07
73952;BME280;62304;47.662;18.324;2023-04-24T00:44:25;99385.53;;;15.96;47.36
73952;BME280;62304;47.662;18.324;2023-04-24T00:47:29;99379.94;;;15.96;47.22
73952;BME280;62304;47.662;18.324;2023-04-24T00:50:36;99378.53;;;15.88;47.69
73952;BME280;62304;47.662;18.324;2023-04-24T00:53:38;99378.88;;;15.90;47.72
73952;BME280;62304;47.662;18.324;2023-04-24T00:56:42;99373.12;;;15.78;48.78
73952;BME280;62304;47.662;18.324;2023-04-24T00:59:46;99377.06;;;15.80;48.67
73952;BME280;62304;47.662;18.324;2023-04-24T01:02:49;99370.25;;;15.81;49.17
73952;BME280;62304;47.662;18.324;2023-04-24T01:05:54;99367.94;;;15.76;49.44
73952;BME280;62304;47.662;18.324;2023-04-24T01:08:58;99362.56;;;15.66;50.49
73952;BME280;62304;47.662;18.324;2023-04-24T01:12:04;99369.06;;;15.59;50.79
73952;BME280;62304;47.662;18.324;2023-04-24T01:15:08;99357.94;;;15.56;51.57
73952;BME280;62304;47.662;18.324;2023-04-24T01:18:11;99352.91;;;15.47;52.32
73952;BME280;62304;47.662;18.324;2023-04-24T01:21:15;99350.63;;;15.42;52.20
73952;BME280;62304;47.662;18.324;2023-04-24T01:24:19;99342.72;;;15.37;52.62
73952;BME280;62304;47.662;18.324;2023-04-24T01:27:22;99337.13;;;15.37;52.82
73952;BME280;62304;47.662;18.324;2023-04-24T01:30:26;99339.66;;;15.28;53.43
73952;BME280;62304;47.662;18.324;2023-04-24T01:33:29;99345.16;;;15.35;53.20
73952;BME280;62304;47.662;18.324;2023-04-24T01:36:32;99338.28;;;15.40;53.40
73952;BME280;62304;47.662;18.324;2023-04-24T01:39:35;99332.69;;;15.40;53.45
73952;BME280;62304;47.662;18.324;2023-04-24T01:42:40;99328.19;;;15.46;53.26
73952;BME280;62304;47.662;18.324;2023-04-24T01:45:43;99320.97;;;15.48;52.99
73952;BME280;62304;47.662;18.324;2023-04-24T01:48:47;99322.59;;;15.46;53.02
73952;BME280;62304;47.662;18.324;2023-04-24T01:51:49;99317.75;;;15.50;52.65
73952;BME280;62304;47.662;18.324;2023-04-24T01:54:52;99316.94;;;15.49;52.59
73952;BME280;62304;47.662;18.324;2023-04-24T01:57:56;99320.97;;;15.48;52.72
73952;BME280;62304;47.662;18.324;2023-04-24T02:00:59;99319.38;;;15.47;53.18
73952;BME280;62304;47.662;18.324;2023-04-24T02:04:04;99309.09;;;15.44;53.26
73952;BME280;62304;47.662;18.324;2023-04-24T02:07:09;99318.66;;;15.43;53.45
73952;BME280;62304;47.662;18.324;2023-04-24T02:10:12;99316.34;;;15.38;53.43
73952;BME280;62304;47.662;18.324;2023-04-24T02:13:16;99324.03;;;15.34;53.60
73952;BME280;62304;47.662;18.324;2023-04-24T02:16:19;99310.94;;;15.28;54.10
73952;BME280;62304;47.662;18.324;2023-04-24T02:19:22;99312.56;;;15.25;53.84
73952;BME280;62304;47.662;18.324;2023-04-24T02:22:25;99309.78;;;15.25;53.83
73952;BME280;62304;47.662;18.324;2023-04-24T02:25:28;99304.25;;;15.22;54.51
73952;BME280;62304;47.662;18.324;2023-04-24T02:28:31;99300.97;;;15.27;54.24
73952;BME280;62304;47.662;18.324;2023-04-24T02:31:34;99290.72;;;15.20;54.49
73952;BME280;62304;47.662;18.324;2023-04-24T02:34:37;99288.78;;;15.17;54.98
73952;BME280;62304;47.662;18.324;2023-04-24T02:37:40;99289.63;;;15.14;55.19
73952;BME280;62304;47.662;18.324;2023-04-24T02:40:46;99278.88;;;15.13;55.67
73952;BME280;62304;47.662;18.324;2023-04-24T02:43:49;99286.84;;;15.14;55.46
73952;BME280;62304;47.662;18.324;2023-04-24T02:46:52;99284.19;;;15.07;56.31
73952;BME280;62304;47.662;18.324;2023-04-24T02:49:55;99279.38;;;15.08;56.16
73952;BME280;62304;47.662;18.324;2023-04-24T02:52:57;99272.53;;;15.12;56.31
73952;BME280;62304;47.662;18.324;2023-04-24T02:56:00;99265.34;;;15.11;56.16
73952;BME280;62304;47.662;18.324;2023-04-24T02:59:03;99282.97;;;15.08;56.50
73952;BME280;62304;47.662;18.324;2023-04-24T03:02:06;99266.63;;;15.07;56.38
73952;BME280;62304;47.662;18.324;2023-04-24T03:05:09;99264.56;;;15.11;56.06
73952;BME280;62304;47.662;18.324;2023-04-24T03:08:14;99257.25;;;15.17;55.67
73952;BME280;62304;47.662;18.324;2023-04-24T03:11:19;99249.62;;;15.21;55.36
73952;BME280;62304;47.662;18.324;2023-04-24T03:14:22;99240.00;;;15.22;55.34
73952;BME280;62304;47.662;18.324;2023-04-24T03:17:25;99232.78;;;15.24;55.10
73952;BME280;62304;47.662;18.324;2023-04-24T03:20:28;99235.94;;;15.26;54.98
73952;BME280;62304;47.662;18.324;2023-04-24T03:23:31;99233.50;;;15.28;54.80
73952;BME280;62304;47.662;18.324;2023-04-24T03:26:34;99228.28;;;15.30;54.47
73952;BME280;62304;47.662;18.324;2023-04-24T03:29:49;99225.81;;;15.36;54.21
73952;BME280;62304;47.662;18.324;2023-04-24T03:32:57;99225.38;;;15.37;53.92
73952;BME280;62304;47.662;18.324;2023-04-24T03:36:00;99226.91;;;15.42;53.71
73952;BME280;62304;47.662;18.324;2023-04-24T03:39:07;99224.16;;;15.38;53.71
73952;BME280;62304;47.662;18.324;2023-04-24T03:42:11;99228.63;;;15.32;53.99
73952;BME280;62304;47.662;18.324;2023-04-24T03:45:15;99229.50;;;15.29;53.93
73952;BME280;62304;47.662;18.324;2023-04-24T03:48:19;99226.78;;;15.26;54.00
73952;BME280;62304;47.662;18.324;2023-04-24T03:51:22;99220.03;;;15.23;54.35
73952;BME280;62304;47.662;18.324;2023-04-24T03:54:26;99234.34;;;15.25;54.71
73952;BME280;62304;47.662;18.324;2023-04-24T03:57:29;99232.06;;;15.20;54.76
73952;BME280;62304;47.662;18.324;2023-04-24T04:00:32;99234.56;;;15.15;55.95
73952;BME280;62304;47.662;18.324;2023-04-24T04:03:37;99229.53;;;15.06;56.56
73952;BME280;62304;47.662;18.324;2023-04-24T04:06:40;99237.25;;;14.99;56.62
73952;BME280;62304;47.662;18.324;2023-04-24T04:09:44;99232.94;;;14.94;57.01
73952;BME280;62304;47.662;18.324;2023-04-24T04:12:47;99240.59;;;14.90;57.00
73952;BME280;62304;47.662;18.324;2023-04-24T04:15:50;99241.44;;;14.87;56.94
73952;BME280;62304;47.662;18.324;2023-04-24T04:18:52;99239.94;;;14.83;57.33
73952;BME280;62304;47.662;18.324;2023-04-24T04:21:56;99252.72;;;14.80;57.63
73952;BME280;62304;47.662;18.324;2023-04-24T04:24:59;99249.22;;;14.76;58.21
73952;BME280;62304;47.662;18.324;2023-04-24T04:28:04;99252.00;;;14.76;58.83
73952;BME280;62304;47.662;18.324;2023-04-24T04:31:07;99240.06;;;14.76;58.23
73952;BME280;62304;47.662;18.324;2023-04-24T04:34:10;99245.59;;;14.79;58.16
73952;BME280;62304;47.662;18.324;2023-04-24T04:37:14;99236.28;;;14.86;57.83
73952;BME280;62304;47.662;18.324;2023-04-24T04:40:19;99234.22;;;14.90;57.68
73952;BME280;62304;47.662;18.324;2023-04-24T04:43:23;99244.00;;;15.01;57.16
73952;BME280;62304;47.662;18.324;2023-04-24T04:46:28;99234.75;;;15.04;57.11
73952;BME280;62304;47.662;18.324;2023-04-24T04:49:34;99238.94;;;15.16;57.01
73952;BME280;62304;47.662;18.324;2023-04-24T04:52:38;99237.94;;;15.26;56.84
73952;BME280;62304;47.662;18.324;2023-04-24T04:55:41;99233.06;;;15.33;56.27
73952;BME280;62304;47.662;18.324;2023-04-24T04:58:45;99229.22;;;15.43;56.24
73952;BME280;62304;47.662;18.324;2023-04-24T05:01:48;99229.03;;;15.54;55.45
73952;BME280;62304;47.662;18.324;2023-04-24T05:04:51;99238.91;;;15.78;54.99
73952;BME280;62304;47.662;18.324;2023-04-24T05:07:54;99236.19;;;15.74;54.67
73952;BME280;62304;47.662;18.324;2023-04-24T05:10:57;99242.50;;;15.78;54.63
73952;BME280;62304;47.662;18.324;2023-04-24T05:14:00;99247.13;;;16.04;54.42
73952;BME280;62304;47.662;18.324;2023-04-24T05:17:04;99251.47;;;15.89;54.28
73952;BME280;62304;47.662;18.324;2023-04-24T05:20:07;99253.37;;;15.73;54.96
73952;BME280;62304;47.662;18.324;2023-04-24T05:23:11;99246.59;;;15.54;55.20
73952;BME280;62304;47.662;18.324;2023-04-24T05:26:15;99253.13;;;15.48;55.81
73952;BME280;62304;47.662;18.324;2023-04-24T05:29:18;99257.97;;;15.44;56.01
73952;BME280;62304;47.662;18.324;2023-04-24T05:32:21;99272.88;;;15.37;56.78
73952;BME280;62304;47.662;18.324;2023-04-24T05:35:24;99274.44;;;15.38;56.40
73952;BME280;62304;47.662;18.324;2023-04-24T05:38:27;99271.66;;;15.38;56.40
73952;BME280;62304;47.662;18.324;2023-04-24T05:41:30;99273.44;;;15.48;56.17
73952;BME280;62304;47.662;18.324;2023-04-24T05:44:33;99274.50;;;15.77;55.55
73952;BME280;62304;47.662;18.324;2023-04-24T05:47:36;99270.94;;;16.12;54.98
73952;BME280;62304;47.662;18.324;2023-04-24T05:50:39;99263.19;;;16.36;54.54
73952;BME280;62304;47.662;18.324;2023-04-24T05:53:43;99260.28;;;16.75;52.94
73952;BME280;62304;47.662;18.324;2023-04-24T05:56:46;99267.28;;;16.67;53.04
73952;BME280;62304;47.662;18.324;2023-04-24T05:59:49;99276.53;;;16.48;53.84
73952;BME280;62304;47.662;18.324;2023-04-24T06:02:52;99266.22;;;16.61;53.55
73952;BME280;62304;47.662;18.324;2023-04-24T06:05:56;99266.66;;;16.91;53.04
73952;BME280;62304;47.662;18.324;2023-04-24T06:08:59;99257.72;;;16.96;52.59
73952;BME280;62304;47.662;18.324;2023-04-24T06:12:03;99262.37;;;17.03;52.34
73952;BME280;62304;47.662;18.324;2023-04-24T06:15:08;99265.84;;;17.23;51.96
73952;BME280;62304;47.662;18.324;2023-04-24T06:18:12;99267.03;;;17.38;51.78
73952;BME280;62304;47.662;18.324;2023-04-24T06:21:16;99253.69;;;17.58;51.29
73952;BME280;62304;47.662;18.324;2023-04-24T06:24:19;99262.06;;;17.74;50.96
73952;BME280;62304;47.662;18.324;2023-04-24T06:27:21;99266.00;;;17.76;50.73
73952;BME280;62304;47.662;18.324;2023-04-24T06:30:24;99278.09;;;17.73;50.89
73952;BME280;62304;47.662;18.324;2023-04-24T06:33:27;99266.69;;;17.52;51.31
73952;BME280;62304;47.662;18.324;2023-04-24T06:36:33;99258.12;;;17.43;52.24
73952;BME280;62304;47.662;18.324;2023-04-24T06:39:37;99258.91;;;17.43;52.14
73952;BME280;62304;47.662;18.324;2023-04-24T06:42:40;99260.97;;;17.55;51.99
73952;BME280;62304;47.662;18.324;2023-04-24T06:45:43;99265.09;;;17.79;51.04
73952;BME280;62304;47.662;18.324;2023-04-24T06:48:46;99258.34;;;17.77;51.00
73952;BME280;62304;47.662;18.324;2023-04-24T06:51:49;99238.81;;;17.73;51.20
73952;BME280;62304;47.662;18.324;2023-04-24T06:54:52;99248.16;;;17.83;51.23
73952;BME280;62304;47.662;18.324;2023-04-24T06:57:54;99241.47;;;18.05;50.80
73952;BME280;62304;47.662;18.324;2023-04-24T07:00:57;99252.72;;;18.30;50.34
73952;BME280;62304;47.662;18.324;2023-04-24T07:04:00;99248.34;;;18.29;50.26
73952;BME280;62304;47.662;18.324;2023-04-24T07:07:04;99251.63;;;18.53;49.14
73952;BME280;62304;47.662;18.324;2023-04-24T07:10:09;99244.63;;;18.20;49.68
73952;BME280;62304;47.662;18.324;2023-04-24T07:13:12;99246.44;;;18.14;50.38
73952;BME280;62304;47.662;18.324;2023-04-24T07:16:14;99239.03;;;18.20;50.02
73952;BME280;62304;47.662;18.324;2023-04-24T07:19:18;99245.22;;;18.27;49.82
73952;BME280;62304;47.662;18.324;2023-04-24T07:22:20;99246.69;;;18.69;49.08
73952;BME280;62304;47.662;18.324;2023-04-24T07:25:23;99239.00;;;18.95;48.25
73952;BME280;62304;47.662;18.324;2023-04-24T07:28:26;99249.88;;;19.52;47.03
73952;BME280;62304;47.662;18.324;2023-04-24T07:31:29;99245.94;;;19.92;46.21
73952;BME280;62304;47.662;18.324;2023-04-24T07:34:32;99241.88;;;19.93;45.99
73952;BME280;62304;47.662;18.324;2023-04-24T07:37:35;99239.69;;;20.10;45.70
73952;BME280;62304;47.662;18.324;2023-04-24T07:40:38;99245.94;;;19.92;46.22
73952;BME280;62304;47.662;18.324;2023-04-24T07:43:41;99246.28;;;19.73;46.50
73952;BME280;62304;47.662;18.324;2023-04-24T07:46:44;99256.13;;;19.34;46.61
73952;BME280;62304;47.662;18.324;2023-04-24T07:49:47;99244.56;;;19.53;46.46
73952;BME280;62304;47.662;18.324;2023-04-24T07:52:50;99236.41;;;19.68;46.73
73952;BME280;62304;47.662;18.324;2023-04-24T07:55:56;99246.59;;;20.17;44.88
73952;BME280;62304;47.662;18.324;2023-04-24T07:58:59;99234.72;;;20.53;43.32
73952;BME280;62304;47.662;18.324;2023-04-24T08:02:04;99232.72;;;20.62;42.73
73952;BME280;62304;47.662;18.324;2023-04-24T08:05:07;99235.22;;;21.09;42.26
73952;BME280;62304;47.662;18.324;2023-04-24T08:08:10;99228.88;;;20.87;42.44
73952;BME280;62304;47.662;18.324;2023-04-24T08:11:13;99232.19;;;20.46;43.41
73952;BME280;62304;47.662;18.324;2023-04-24T08:14:16;99219.59;;;20.29;44.19
73952;BME280;62304;47.662;18.324;2023-04-24T08:17:19;99228.94;;;20.56;43.67
73952;BME280;62304;47.662;18.324;2023-04-24T08:20:22;99236.75;;;20.52;43.93
73952;BME280;62304;47.662;18.324;2023-04-24T08:23:25;99227.62;;;20.09;44.91
73952;BME280;62304;47.662;18.324;2023-04-24T08:26:27;99235.50;;;19.92;45.42
73952;BME280;62304;47.662;18.324;2023-04-24T08:29:30;99228.22;;;19.61;46.46
73952;BME280;62304;47.662;18.324;2023-04-24T08:32:33;99243.94;;;19.71;46.79
73952;BME280;62304;47.662;18.324;2023-04-24T08:35:36;99241.69;;;19.66;46.57
73952;BME280;62304;47.662;18.324;2023-04-24T08:38:39;99238.75;;;19.48;47.07
73952;BME280;62304;47.662;18.324;2023-04-24T08:41:44;99244.47;;;19.23;48.02
73952;BME280;62304;47.662;18.324;2023-04-24T08:44:49;99246.59;;;19.19;48.22
73952;BME280;62304;47.662;18.324;2023-04-24T08:47:53;99245.78;;;19.31;48.11
73952;BME280;62304;47.662;18.324;2023-04-24T08:51:00;99245.06;;;19.06;48.43
73952;BME280;62304;47.662;18.324;2023-04-24T08:54:04;99251.53;;;19.28;48.43
73952;BME280;62304;47.662;18.324;2023-04-24T08:57:07;99263.75;;;19.46;48.63
73952;BME280;62304;47.662;18.324;2023-04-24T09:00:14;99250.62;;;19.18;48.89
73952;BME280;62304;47.662;18.324;2023-04-24T09:03:17;99260.25;;;18.83;49.49
73952;BME280;62304;47.662;18.324;2023-04-24T09:06:21;99253.66;;;18.77;49.69
73952;BME280;62304;47.662;18.324;2023-04-24T09:09:25;99260.31;;;19.17;50.02
73952;BME280;62304;47.662;18.324;2023-04-24T09:12:28;99253.25;;;19.25;50.24
73952;BME280;62304;47.662;18.324;2023-04-24T09:15:31;99255.34;;;19.34;49.97
73952;BME280;62304;47.662;18.324;2023-04-24T09:18:34;99257.00;;;19.65;49.82
73952;BME280;62304;47.662;18.324;2023-04-24T09:21:37;99253.53;;;19.61;49.69
73952;BME280;62304;47.662;18.324;2023-04-24T09:24:40;99252.63;;;19.64;50.08
73952;BME280;62304;47.662;18.324;2023-04-24T09:27:45;99253.06;;;19.84;50.46
73952;BME280;62304;47.662;18.324;2023-04-24T09:31:14;99261.66;;;20.02;50.03
73952;BME280;62304;47.662;18.324;2023-04-24T09:34:23;99263.44;;;19.87;50.47
73952;BME280;62304;47.662;18.324;2023-04-24T09:37:30;99258.97;;;19.77;50.65
73952;BME280;62304;47.662;18.324;2023-04-24T09:40:34;99264.03;;;19.61;51.11
73952;BME280;62304;47.662;18.324;2023-04-24T09:43:37;99255.53;;;19.39;51.59
73952;BME280;62304;47.662;18.324;2023-04-24T09:46:41;99259.31;;;19.11;52.44
73952;BME280;62304;47.662;18.324;2023-04-24T09:49:44;99263.41;;;18.85;53.26
73952;BME280;62304;47.662;18.324;2023-04-24T09:52:57;99257.13;;;18.69;53.48
73952;BME280;62304;47.662;18.324;2023-04-24T09:56:09;99262.06;;;18.52;53.88
73952;BME280;62304;47.662;18.324;2023-04-24T09:59:16;99260.84;;;18.66;54.10
73952;BME280;62304;47.662;18.324;2023-04-24T10:02:20;99257.69;;;18.76;53.69
73952;BME280;62304;47.662;18.324;2023-04-24T10:05:25;99258.22;;;18.96;52.87
73952;BME280;62304;47.662;18.324;2023-04-24T10:08:36;99254.31;;;18.94;52.51
73952;BME280;62304;47.662;18.324;2023-04-24T10:11:45;99267.56;;;18.81;52.53
73952;BME280;62304;47.662;18.324;2023-04-24T10:14:48;99266.12;;;18.76;52.64
73952;BME280;62304;47.662;18.324;2023-04-24T10:17:52;99261.28;;;18.77;53.59
73952;BME280;62304;47.662;18.324;2023-04-24T10:20:55;99259.50;;;18.45;53.07
73952;BME280;62304;47.662;18.324;2023-04-24T10:23:58;99255.63;;;18.27;53.98
73952;BME280;62304;47.662;18.324;2023-04-24T10:27:03;99256.09;;;18.25;54.35
73952;BME280;62304;47.662;18.324;2023-04-24T10:30:08;99258.31;;;18.30;54.63
73952;BME280;62304;47.662;18.324;2023-04-24T10:33:11;99258.44;;;18.14;55.21
73952;BME280;62304;47.662;18.324;2023-04-24T10:36:15;99255.41;;;18.09;55.58
73952;BME280;62304;47.662;18.324;2023-04-24T10:39:19;99259.19;;;18.02;55.86
73952;BME280;62304;47.662;18.324;2023-04-24T10:42:29;99255.91;;;17.91;56.36
73952;BME280;62304;47.662;18.324;2023-04-24T10:45:32;99252.44;;;17.87;56.75
73952;BME280;62304;47.662;18.324;2023-04-24T10:48:36;99260.72;;;17.78;57.86
73952;BME280;62304;47.662;18.324;2023-04-24T10:54:47;99268.75;;;17.64;58.78
73952;BME280;62304;47.662;18.324;2023-04-24T10:58:04;99267.63;;;17.61;59.41
73952;BME280;62304;47.662;18.324;2023-04-24T11:01:07;99271.28;;;17.58;61.18
73952;BME280;62304;47.662;18.324;2023-04-24T11:04:10;99269.28;;;17.59;61.68
73952;BME280;62304;47.662;18.324;2023-04-24T11:07:13;99265.25;;;17.60;62.04
73952;BME280;62304;47.662;18.324;2023-04-24T11:10:28;99263.69;;;17.59;62.48
73952;BME280;62304;47.662;18.324;2023-04-24T11:16:56;99280.53;;;17.43;63.68
73952;BME280;62304;47.662;18.324;2023-04-24T11:20:04;99279.91;;;17.35;63.49
73952;BME280;62304;47.662;18.324;2023-04-24T11:23:26;99270.91;;;17.28;64.00
73952;BME280;62304;47.662;18.324;2023-04-24T11:26:29;99285.37;;;17.26;65.04
73952;BME280;62304;47.662;18.324;2023-04-24T11:29:47;99274.50;;;17.28;65.48
73952;BME280;62304;47.662;18.324;2023-04-24T11:32:51;99281.44;;;17.24;66.05
73952;BME280;62304;47.662;18.324;2023-04-24T11:35:53;99283.44;;;17.23;65.78
73952;BME280;62304;47.662;18.324;2023-04-24T11:38:57;99283.53;;;17.20;65.79
73952;BME280;62304;47.662;18.324;2023-04-24T11:42:03;99286.69;;;17.22;67.00
73952;BME280;62304;47.662;18.324;2023-04-24T11:48:20;99279.78;;;17.10;67.20
73952;BME280;62304;47.662;18.324;2023-04-24T11:51:27;99293.81;;;17.10;67.63
73952;BME280;62304;47.662;18.324;2023-04-24T11:54:38;99288.91;;;16.98;67.31
73952;BME280;62304;47.662;18.324;2023-04-24T11:57:53;99292.41;;;16.86;67.85
73952;BME280;62304;47.662;18.324;2023-04-24T12:00:57;99285.84;;;16.77;68.03
73952;BME280;62304;47.662;18.324;2023-04-24T12:04:01;99285.06;;;16.76;68.16
73952;BME280;62304;47.662;18.324;2023-04-24T12:07:04;99291.25;;;16.68;68.87
73952;BME280;62304;47.662;18.324;2023-04-24T12:10:08;99288.09;;;16.66;69.52
73952;BME280;62304;47.662;18.324;2023-04-24T12:13:12;99286.63;;;16.61;69.50
73952;BME280;62304;47.662;18.324;2023-04-24T12:16:15;99282.91;;;16.48;70.26
73952;BME280;62304;47.662;18.324;2023-04-24T12:19:22;99288.44;;;16.52;69.44
73952;BME280;62304;47.662;18.324;2023-04-24T12:22:26;99289.94;;;16.56;68.71
73952;BME280;62304;47.662;18.324;2023-04-24T12:25:31;99283.00;;;16.45;69.14
73952;BME280;62304;47.662;18.324;2023-04-24T12:28:40;99279.69;;;16.50;68.63
73952;BME280;62304;47.662;18.324;2023-04-24T12:31:53;99287.06;;;16.60;67.47
73952;BME280;62304;47.662;18.324;2023-04-24T12:34:57;99293.47;;;16.76;66.85
73952;BME280;62304;47.662;18.324;2023-04-24T12:41:12;99278.34;;;17.34;65.94
73952;BME280;62304;47.662;18.324;2023-04-24T12:44:15;99276.13;;;17.58;65.78
73952;BME280;62304;47.662;18.324;2023-04-24T12:47:18;99279.38;;;17.56;66.33
73952;BME280;62304;47.662;18.324;2023-04-24T12:50:21;99281.84;;;17.54;66.08
73952;BME280;62304;47.662;18.324;2023-04-24T12:53:25;99276.81;;;17.62;66.21
73952;BME280;62304;47.662;18.324;2023-04-24T12:56:29;99281.16;;;17.50;66.58
73952;BME280;62304;47.662;18.324;2023-04-24T12:59:34;99286.84;;;17.47;66.62
73952;BME280;62304;47.662;18.324;2023-04-24T13:02:37;99279.78;;;17.42;67.60
73952;BME280;62304;47.662;18.324;2023-04-24T13:05:42;99290.34;;;17.35;68.20
73952;BME280;62304;47.662;18.324;2023-04-24T13:08:46;99286.19;;;16.95;69.89
73952;BME280;62304;47.662;18.324;2023-04-24T13:11:50;99287.69;;;16.83;71.09
73952;BME280;62304;47.662;18.324;2023-04-24T13:14:53;99290.03;;;16.69;71.91
73952;BME280;62304;47.662;18.324;2023-04-24T13:17:56;99286.59;;;16.45;72.08
73952;BME280;62304;47.662;18.324;2023-04-24T13:20:59;99284.31;;;16.40;72.52
73952;BME280;62304;47.662;18.324;2023-04-24T13:24:02;99288.44;;;16.16;73.99
73952;BME280;62304;47.662;18.324;2023-04-24T13:27:08;99283.47;;;16.04;73.99
73952;BME280;62304;47.662;18.324;2023-04-24T13:30:12;99284.28;;;16.05;73.85
73952;BME280;62304;47.662;18.324;2023-04-24T13:33:20;99275.31;;;15.94;74.69
73952;BME280;62304;47.662;18.324;2023-04-24T13:36:23;99270.16;;;15.92;74.08
73952;BME280;62304;47.662;18.324;2023-04-24T13:39:26;99270.97;;;15.73;74.07
73952;BME280;62304;47.662;18.324;2023-04-24T13:42:29;99273.53;;;15.64;73.25
73952;BME280;62304;47.662;18.324;2023-04-24T13:45:34;99277.56;;;15.63;72.19
73952;BME280;62304;47.662;18.324;2023-04-24T13:48:37;99274.34;;;15.65;72.34
73952;BME280;62304;47.662;18.324;2023-04-24T13:51:41;99272.88;;;15.57;72.65
73952;BME280;62304;47.662;18.324;2023-04-24T13:54:44;99281.06;;;15.48;73.11
73952;BME280;62304;47.662;18.324;2023-04-24T13:57:46;99281.97;;;15.41;73.74
73952;BME280;62304;47.662;18.324;2023-04-24T14:00:49;99280.25;;;15.47;73.85
73952;BME280;62304;47.662;18.324;2023-04-24T14:03:54;99277.22;;;15.38;73.94
73952;BME280;62304;47.662;18.324;2023-04-24T14:06:58;99285.50;;;15.22;74.07
73952;BME280;62304;47.662;18.324;2023-04-24T14:10:01;99285.28;;;14.90;75.09
73952;BME280;62304;47.662;18.324;2023-04-24T14:13:04;99287.69;;;14.88;74.91
73952;BME280;62304;47.662;18.324;2023-04-24T14:16:08;99282.97;;;14.85;75.21
73952;BME280;62304;47.662;18.324;2023-04-24T14:19:11;99276.75;;;14.74;75.87
73952;BME280;62304;47.662;18.324;2023-04-24T14:22:14;99289.84;;;14.54;76.80
73952;BME280;62304;47.662;18.324;2023-04-24T14:25:16;99296.91;;;14.62;76.21
73952;BME280;62304;47.662;18.324;2023-04-24T14:28:20;99296.22;;;14.55;77.92
73952;BME280;62304;47.662;18.324;2023-04-24T14:31:23;99293.09;;;14.49;77.84
73952;BME280;62304;47.662;18.324;2023-04-24T14:34:26;99287.81;;;14.32;78.50
73952;BME280;62304;47.662;18.324;2023-04-24T14:37:29;99291.78;;;14.31;78.74
73952;BME280;62304;47.662;18.324;2023-04-24T14:40:32;99289.03;;;14.27;80.12
73952;BME280;62304;47.662;18.324;2023-04-24T14:43:37;99292.00;;;14.13;80.36
73952;BME280;62304;47.662;18.324;2023-04-24T14:46:41;99285.88;;;14.25;79.84
73952;BME280;62304;47.662;18.324;2023-04-24T14:49:44;99277.53;;;14.25;80.62
73952;BME280;62304;47.662;18.324;2023-04-24T14:52:49;99287.97;;;14.44;79.77
73952;BME280;62304;47.662;18.324;2023-04-24T14:55:53;99286.81;;;14.42;80.33
73952;BME280;62304;47.662;18.324;2023-04-24T14:58:57;99291.63;;;14.41;80.83
73952;BME280;62304;47.662;18.324;2023-04-24T15:02:00;99294.00;;;14.43;80.36
73952;BME280;62304;47.662;18.324;2023-04-24T15:05:17;99285.19;;;14.44;80.11
73952;BME280;62304;47.662;18.324;2023-04-24T15:08:21;99290.84;;;14.41;81.84
73952;BME280;62304;47.662;18.324;2023-04-24T15:11:24;99286.28;;;14.50;81.43
73952;BME280;62304;47.662;18.324;2023-04-24T15:14:29;99291.53;;;14.48;81.21
73952;BME280;62304;47.662;18.324;2023-04-24T15:17:32;99288.09;;;14.37;81.82
73952;BME280;62304;47.662;18.324;2023-04-24T15:20:35;99286.53;;;14.36;82.92
73952;BME280;62304;47.662;18.324;2023-04-24T15:23:40;99283.56;;;14.47;81.89
73952;BME280;62304;47.662;18.324;2023-04-24T15:26:43;99282.16;;;14.35;82.40
73952;BME280;62304;47.662;18.324;2023-04-24T15:29:46;99279.44;;;14.32;82.57
73952;BME280;62304;47.662;18.324;2023-04-24T15:32:49;99278.22;;;14.33;82.57
73952;BME280;62304;47.662;18.324;2023-04-24T15:35:52;99276.50;;;14.12;83.86
73952;BME280;62304;47.662;18.324;2023-04-24T15:38:54;99283.19;;;14.18;83.63
73952;BME280;62304;47.662;18.324;2023-04-24T15:41:58;99278.59;;;14.05;84.76
73952;BME280;62304;47.662;18.324;2023-04-24T15:45:01;99275.28;;;14.13;84.37
73952;BME280;62304;47.662;18.324;2023-04-24T15:48:04;99278.44;;;14.15;85.18
73952;BME280;62304;47.662;18.324;2023-04-24T15:51:07;99279.22;;;14.16;84.63
73952;BME280;62304;47.662;18.324;2023-04-24T15:54:11;99278.53;;;14.08;84.94
73952;BME280;62304;47.662;18.324;2023-04-24T15:57:14;99290.44;;;14.12;84.63
73952;BME280;62304;47.662;18.324;2023-04-24T16:00:17;99288.47;;;14.09;84.71
73952;BME280;62304;47.662;18.324;2023-04-24T16:03:20;99281.62;;;14.14;84.11
73952;BME280;62304;47.662;18.324;2023-04-24T16:06:24;99292.09;;;14.06;85.01
73952;BME280;62304;47.662;18.324;2023-04-24T16:09:28;99284.94;;;14.05;84.67
73952;BME280;62304;47.662;18.324;2023-04-24T16:12:31;99289.84;;;13.94;84.90
73952;BME280;62304;47.662;18.324;2023-04-24T16:15:34;99293.56;;;13.84;85.27